Time;durP1;ratioP1;P1;durP2;ratioP2;P2;SDS_P1;SDS_P2;PMS_P1;PMS_P2;Temp;Humidity;BMP_temperature;BMP_pressure;BME280_temperature;BME280_humidity;BME280_pressure;Samples;Min_cycle;Max_cycle;Signal;HPM_P1;HPM_P2
2022/04/29 00:00:48;;;;;;;7.67;6.53;;;8.90;99.90;;;;;;4974723;28;20242;-38
2022/04/29 00:03:14;;;;;;;8.33;6.70;;;8.80;99.90;;;;;;4992318;28;20190;-41
2022/04/29 00:05:43;;;;;;;8.73;7.10;;;8.80;99.90;;;;;;4975099;28;20180;-38
2022/04/29 00:08:10;;;;;;;9.47;7.20;;;8.70;99.90;;;;;;4974696;28;20243;-41
2022/04/29 00:10:37;;;;;;;9.83;7.00;;;8.70;99.90;;;;;;4974312;28;20180;-39
2022/04/29 00:13:05;;;;;;;7.80;6.40;;;8.70;99.90;;;;;;4974487;28;20179;-41
2022/04/29 00:15:31;;;;;;;7.63;6.80;;;8.60;99.90;;;;;;4973419;28;20241;-40
2022/04/29 00:17:58;;;;;;;8.63;7.07;;;8.50;99.90;;;;;;4991487;28;20202;-41
2022/04/29 00:20:24;;;;;;;9.57;6.97;;;8.40;99.90;;;;;;4974447;28;20266;-40
2022/04/29 00:22:50;;;;;;;7.37;6.53;;;8.40;99.90;;;;;;4974298;28;20652;-40
2022/04/29 00:25:16;;;;;;;9.20;7.30;;;8.30;99.90;;;;;;4974484;28;20185;-39
2022/04/29 00:27:42;;;;;;;8.13;7.07;;;8.30;99.90;;;;;;4974289;28;20298;-40
2022/04/29 00:30:10;;;;;;;7.27;6.57;;;8.30;99.90;;;;;;4974153;28;20183;-39
2022/04/29 00:32:39;;;;;;;7.53;6.73;;;8.30;99.90;;;;;;4974411;28;20203;-40
2022/04/29 00:35:06;;;;;;;8.67;6.73;;;8.30;99.90;;;;;;4958102;28;20640;-39
2022/04/29 00:37:32;;;;;;;9.17;7.37;;;8.20;99.90;;;;;;4974306;28;20242;-39
2022/04/29 00:39:58;;;;;;;8.83;7.87;;;8.20;99.90;;;;;;4973937;28;20187;-39
2022/04/29 00:42:24;;;;;;;7.07;6.37;;;8.20;99.90;;;;;;4974193;28;20187;-39
2022/04/29 00:44:51;;;;;;;7.20;6.50;;;8.10;99.90;;;;;;4973965;28;20184;-39
2022/04/29 00:47:20;;;;;;;7.43;6.47;;;8.00;99.90;;;;;;4958047;28;20207;-37
2022/04/29 00:49:47;;;;;;;7.03;6.33;;;8.00;99.90;;;;;;4990348;28;20187;-39
2022/04/29 00:52:17;;;;;;;8.20;7.00;;;8.00;99.90;;;;;;4974378;28;20186;-39
2022/04/29 00:54:46;;;;;;;8.03;6.70;;;8.00;99.90;;;;;;4974049;28;20183;-39
2022/04/29 00:57:19;;;;;;;10.57;6.87;;;8.00;99.90;;;;;;4990000;28;20207;-36
2022/04/29 00:59:51;;;;;;;8.53;7.03;;;8.00;99.90;;;;;;4957706;28;20190;-37
2022/04/29 01:02:16;;;;;;;9.97;7.00;;;7.90;99.90;;;;;;4974105;28;20207;-40
2022/04/29 01:05:01;;;;;;;7.67;6.00;;;7.90;99.90;;;;;;4974012;28;20698;-41
2022/04/29 01:07:32;;;;;;;8.33;6.53;;;7.90;99.90;;;;;;4973948;28;20211;-39
2022/04/29 01:09:58;;;;;;;8.43;6.47;;;7.90;99.90;;;;;;4973458;28;20540;-39
2022/04/29 01:12:25;;;;;;;8.40;7.03;;;7.80;99.90;;;;;;4957876;28;20183;-39
2022/04/29 01:14:54;;;;;;;8.43;6.97;;;7.80;99.90;;;;;;4973896;28;20684;-39
2022/04/29 01:17:20;;;;;;;7.33;6.43;;;7.80;99.90;;;;;;4973690;28;20202;-41
2022/04/29 01:19:46;;;;;;;7.23;6.53;;;7.70;99.90;;;;;;4989842;28;20214;-38
2022/04/29 01:22:12;;;;;;;8.03;6.23;;;7.70;99.90;;;;;;4989842;28;20206;-39
2022/04/29 01:24:38;;;;;;;7.10;6.40;;;7.60;99.90;;;;;;4989831;28;20194;-36
2022/04/29 01:27:10;;;;;;;8.10;6.40;;;7.60;99.90;;;;;;4958145;28;20287;-39
2022/04/29 01:29:42;;;;;;;7.97;7.17;;;7.50;99.90;;;;;;4977437;28;20184;-39
2022/04/29 01:32:09;;;;;;;10.47;6.83;;;7.30;99.90;;;;;;4977965;28;20189;-39
2022/04/29 01:34:37;;;;;;;8.33;7.33;;;7.30;99.90;;;;;;4977854;28;20181;-39
2022/04/29 01:37:04;;;;;;;8.97;6.97;;;7.30;99.90;;;;;;4977115;28;20201;-39
2022/04/29 01:39:31;;;;;;;8.80;7.80;;;7.20;99.90;;;;;;4977246;28;20193;-39
2022/04/29 01:41:57;;;;;;;7.60;6.83;;;7.10;99.90;;;;;;4977481;28;20182;-41
2022/04/29 01:44:23;;;;;;;7.63;6.63;;;7.10;99.90;;;;;;4977604;28;20201;-39
2022/04/29 01:46:49;;;;;;;8.23;7.33;;;7.20;99.90;;;;;;4961296;28;20218;-36
2022/04/29 01:49:47;;;;;;;7.87;7.00;;;7.30;99.90;;;;;;4965011;28;20179;-40
2022/04/29 01:52:13;;;;;;;8.43;7.20;;;7.30;99.90;;;;;;4961132;28;20182;-41
2022/04/29 01:54:40;;;;;;;7.57;6.83;;;7.40;99.90;;;;;;4994037;28;20190;-39
2022/04/29 01:57:07;;;;;;;7.97;7.10;;;7.30;99.90;;;;;;4978650;28;20200;-39
2022/04/29 01:59:33;;;;;;;8.63;7.57;;;7.30;99.90;;;;;;4989333;28;20215;-40
2022/04/29 02:02:21;;;;;;;8.90;7.23;;;7.20;99.90;;;;;;4960788;28;20605;-37
2022/04/29 02:04:47;;;;;;;8.87;7.43;;;7.30;99.90;;;;;;4973763;28;20194;-38
2022/04/29 02:07:15;;;;;;;9.13;8.17;;;7.30;99.90;;;;;;4973641;28;20230;-35
2022/04/29 02:09:43;;;;;;;9.80;7.20;;;7.40;99.90;;;;;;4941862;28;20189;-39
2022/04/29 02:12:11;;;;;;;8.57;7.67;;;7.30;99.90;;;;;;4941083;28;20191;-41
2022/04/29 02:14:55;;;;;;;9.13;7.13;;;7.30;99.90;;;;;;4960307;28;20202;-39
2022/04/29 02:17:25;;;;;;;8.00;6.93;;;7.30;99.90;;;;;;4973539;28;20203;-39
2022/04/29 02:19:51;;;;;;;9.30;7.23;;;7.20;99.90;;;;;;4941327;28;20195;-39
2022/04/29 02:22:17;;;;;;;8.17;7.17;;;7.20;99.90;;;;;;4973359;28;20255;-41
2022/04/29 02:24:44;;;;;;;8.30;7.40;;;7.20;99.90;;;;;;4941337;28;20189;-40
2022/04/29 02:27:10;;;;;;;9.20;7.70;;;7.10;99.90;;;;;;4974034;28;20231;-40
2022/04/29 02:29:39;;;;;;;8.57;7.10;;;7.10;99.90;;;;;;4961794;28;20186;-41
2022/04/29 02:32:11;;;;;;;10.00;6.70;;;7.10;99.90;;;;;;4976568;28;20550;-39
2022/04/29 02:34:40;;;;;;;7.50;6.70;;;7.20;99.90;;;;;;4976572;28;20274;-37
2022/04/29 02:37:06;;;;;;;9.17;7.07;;;7.10;99.90;;;;;;4992726;28;20287;-40
2022/04/29 02:39:32;;;;;;;8.83;6.57;;;7.10;99.90;;;;;;4975026;28;20266;-41
2022/04/29 02:41:58;;;;;;;8.63;6.93;;;7.10;99.90;;;;;;4976391;28;20183;-41
2022/04/29 02:44:24;;;;;;;7.63;6.93;;;7.10;99.90;;;;;;4976131;28;20183;-41
2022/04/29 02:47:09;;;;;;;8.93;7.23;;;7.00;99.90;;;;;;4976452;28;20251;-40
2022/04/29 02:49:43;;;;;;;8.53;7.20;;;7.10;99.90;;;;;;4976433;28;20198;-41
2022/04/29 02:52:11;;;;;;;7.63;6.87;;;7.10;99.90;;;;;;4975891;28;20216;-40
2022/04/29 02:54:39;;;;;;;8.30;6.73;;;7.20;99.90;;;;;;4976245;28;20182;-41
2022/04/29 02:57:11;;;;;;;7.33;6.57;;;7.20;99.90;;;;;;4976928;28;20229;-40
2022/04/29 02:59:47;;;;;;;8.10;7.30;;;7.10;99.90;;;;;;4975692;28;20189;-38
2022/04/29 03:02:13;;;;;;;9.07;6.77;;;7.10;99.90;;;;;;4976065;28;20264;-39
2022/04/29 03:04:39;;;;;;;9.87;7.13;;;7.10;99.90;;;;;;4975758;28;20295;-41
2022/04/29 03:07:05;;;;;;;7.67;6.93;;;7.00;99.90;;;;;;4975828;28;20364;-41
2022/04/29 03:09:48;;;;;;;7.80;7.00;;;7.00;99.90;;;;;;4991936;28;20181;-42
2022/04/29 03:12:14;;;;;;;8.07;6.63;;;6.80;99.90;;;;;;4975817;28;20177;-41
2022/04/29 03:14:41;;;;;;;8.73;7.83;;;6.70;99.90;;;;;;4975546;28;20192;-41
2022/04/29 03:18:17;;;;;;;8.20;7.20;;;6.50;99.90;;;;;;4975101;28;20207;-41
2022/04/29 03:19:57;;;;;;;8.17;7.37;;;6.40;99.90;;;;;;4975334;28;20230;-41
2022/04/29 03:22:26;;;;;;;8.30;7.17;;;6.40;99.90;;;;;;4975699;28;20186;-41
2022/04/29 03:24:53;;;;;;;7.67;6.87;;;6.30;99.90;;;;;;4975215;28;20201;-41
2022/04/29 03:27:19;;;;;;;8.50;7.60;;;6.20;99.90;;;;;;4991470;28;20310;-41
2022/04/29 03:29:45;;;;;;;8.47;7.17;;;6.20;99.90;;;;;;4974085;28;20302;-41
2022/04/29 03:32:11;;;;;;;10.50;7.67;;;6.10;99.90;;;;;;4992785;28;20195;-41
2022/04/29 03:34:58;;;;;;;8.77;6.90;;;6.20;99.90;;;;;;4977525;28;20173;-41
2022/04/29 03:37:24;;;;;;;8.27;7.33;;;6.20;99.90;;;;;;4975316;28;20202;-36
2022/04/29 03:39:50;;;;;;;7.83;6.97;;;6.20;99.90;;;;;;4974278;28;20293;-39
2022/04/29 03:42:16;;;;;;;8.40;7.13;;;6.20;99.90;;;;;;4959047;28;20174;-39
2022/04/29 03:44:42;;;;;;;8.23;7.27;;;6.10;99.90;;;;;;4975221;28;20184;-40
2022/04/29 03:47:07;;;;;;;8.73;7.20;;;6.10;99.90;;;;;;4974998;28;20299;-40
2022/04/29 03:50:01;;;;;;;7.77;6.97;;;6.10;99.90;;;;;;4956283;28;20232;-41
2022/04/29 03:52:33;;;;;;;10.23;7.07;;;6.10;99.90;;;;;;4975091;28;20641;-40
2022/04/29 03:54:59;;;;;;;8.43;7.13;;;6.00;99.90;;;;;;4974932;28;20176;-41
2022/04/29 03:57:25;;;;;;;11.00;7.73;;;6.10;99.90;;;;;;4974854;28;20212;-41
2022/04/29 03:59:50;;;;;;;7.67;6.87;;;6.10;99.90;;;;;;4958565;28;20192;-41
2022/04/29 04:02:17;;;;;;;7.67;6.97;;;6.10;99.90;;;;;;4971369;28;20201;-41
2022/04/29 04:04:46;;;;;;;8.43;7.20;;;6.00;99.90;;;;;;4971474;28;20186;-38
2022/04/29 04:07:13;;;;;;;8.23;7.10;;;6.00;99.90;;;;;;4971032;28;20219;-41
2022/04/29 04:09:48;;;;;;;9.13;7.57;;;5.90;99.90;;;;;;4971563;28;20192;-39
2022/04/29 04:12:14;;;;;;;9.00;6.67;;;6.00;99.90;;;;;;4971479;28;20178;-40
2022/04/29 04:15:00;;;;;;;7.90;6.47;;;5.90;99.90;;;;;;4951810;28;20203;-41
2022/04/29 04:17:27;;;;;;;8.80;6.60;;;5.90;99.90;;;;;;4971039;28;20202;-41
2022/04/29 04:19:52;;;;;;;7.73;6.93;;;5.90;99.90;;;;;;4971197;28;20198;-39
2022/04/29 04:22:18;;;;;;;8.00;7.10;;;5.90;99.90;;;;;;4971077;28;20193;-41
2022/04/29 04:24:44;;;;;;;9.80;7.50;;;5.80;99.90;;;;;;4971033;28;20190;-41
2022/04/29 04:27:10;;;;;;;8.00;7.20;;;5.80;99.90;;;;;;4971176;28;20296;-41
2022/04/29 04:29:36;;;;;;;9.60;7.07;;;5.60;99.90;;;;;;4974088;28;20184;-41
2022/04/29 04:32:02;;;;;;;8.30;7.40;;;5.60;99.90;;;;;;4971558;28;20176;-39
2022/04/29 04:37:13;;;;;;;8.33;7.40;;;5.70;99.90;;;;;;4980553;28;20205;-40
2022/04/29 04:39:40;;;;;;;9.23;7.30;;;5.70;99.90;;;;;;4972300;28;20183;-41
2022/04/29 04:42:10;;;;;;;10.33;8.40;;;5.80;99.90;;;;;;4973163;28;20190;-41
2022/04/29 04:44:42;;;;;;;8.73;7.60;;;5.90;99.90;;;;;;4956813;28;20585;-41
2022/04/29 04:47:09;;;;;;;11.27;8.13;;;6.00;99.90;;;;;;4970570;28;20214;-40
2022/04/29 04:50:07;;;;;;;13.10;8.07;;;6.00;99.90;;;;;;4960230;28;20200;-41
2022/04/29 04:52:34;;;;;;;9.33;8.33;;;6.00;99.90;;;;;;4970912;28;20223;-40
2022/04/29 04:55:05;;;;;;;8.20;7.13;;;6.10;99.90;;;;;;4973147;28;20170;-39
2022/04/29 04:57:32;;;;;;;7.37;6.67;;;6.20;99.90;;;;;;4955875;28;20206;-40
2022/04/29 04:59:59;;;;;;;7.77;6.83;;;6.30;99.90;;;;;;4957412;28;20641;-42
2022/04/29 05:02:25;;;;;;;8.20;6.97;;;6.40;99.90;;;;;;4952838;28;20700;-42
2022/04/29 05:05:10;;;;;;;12.23;7.53;;;6.40;99.90;;;;;;4972189;28;20202;-41
2022/04/29 05:07:42;;;;;;;8.83;7.47;;;6.50;99.90;;;;;;4973643;28;20218;-41
2022/04/29 05:10:10;;;;;;;8.13;6.77;;;6.60;99.90;;;;;;4990448;28;20186;-41
2022/04/29 05:12:44;;;;;;;7.90;7.10;;;6.60;99.90;;;;;;4972470;28;20194;-41
2022/04/29 05:15:19;;;;;;;8.50;6.87;;;6.70;99.90;;;;;;4955275;28;20187;-39
2022/04/29 05:17:44;;;;;;;8.07;7.20;;;6.70;99.90;;;;;;4937626;28;20213;-40
2022/04/29 05:20:27;;;;;;;7.53;6.83;;;6.80;99.90;;;;;;4939262;28;20188;-40
2022/04/29 05:22:52;;;;;;;7.63;6.53;;;6.80;99.90;;;;;;4938480;28;20274;-41
2022/04/29 05:25:18;;;;;;;8.03;7.20;;;6.80;99.90;;;;;;4954736;28;20184;-41
2022/04/29 05:27:53;;;;;;;8.37;6.70;;;6.90;99.90;;;;;;4971777;28;20219;-41
2022/04/29 05:30:27;;;;;;;8.27;6.87;;;6.90;99.90;;;;;;4982092;28;20221;-40
2022/04/29 05:33:11;;;;;;;9.30;7.30;;;6.90;99.90;;;;;;4991421;28;20183;-40
2022/04/29 05:35:56;;;;;;;8.40;7.10;;;6.90;99.90;;;;;;4976075;28;20191;-41
2022/04/29 05:44:10;;;;;;;7.00;6.30;;;7.10;99.90;;;;;;5006301;28;20182;-39
2022/04/29 05:46:36;;;;;;;11.37;6.93;;;7.10;99.90;;;;;;4973514;28;20646;-41
2022/04/29 05:49:04;;;;;;;8.57;7.57;;;7.10;99.90;;;;;;4971361;28;20192;-39
2022/04/29 05:51:35;;;;;;;8.37;7.43;;;7.10;99.90;;;;;;4938990;28;20217;-41
2022/04/29 05:54:01;;;;;;;8.83;6.90;;;7.10;99.90;;;;;;4954125;28;20203;-42
2022/04/29 05:56:30;;;;;;;8.90;6.80;;;7.20;99.90;;;;;;4938505;28;20191;-41
2022/04/29 05:58:56;;;;;;;7.10;6.40;;;7.30;99.90;;;;;;4938112;28;20179;-41
2022/04/29 06:01:40;;;;;;;7.90;7.10;;;7.30;99.90;;;;;;4971422;28;20550;-39
2022/04/29 06:04:06;;;;;;;9.37;7.07;;;7.40;99.90;;;;;;4970212;28;20245;-40
2022/04/29 06:06:34;;;;;;;8.13;6.87;;;7.50;99.90;;;;;;4969969;28;20187;-41
2022/04/29 06:09:00;;;;;;;9.17;7.07;;;7.60;99.90;;;;;;4970149;28;20191;-41
2022/04/29 06:11:26;;;;;;;7.60;6.83;;;7.70;99.90;;;;;;4970241;28;20651;-41
2022/04/29 06:13:53;;;;;;;8.70;7.13;;;7.80;99.90;;;;;;4970016;28;20189;-41
2022/04/29 06:16:39;;;;;;;7.50;6.70;;;7.90;99.90;;;;;;4953244;28;20284;-41
2022/04/29 06:19:24;;;;;;;8.53;6.53;;;8.00;99.90;;;;;;4974919;28;20179;-40
2022/04/29 06:22:09;;;;;;;10.17;7.17;;;8.10;99.90;;;;;;4972753;28;20213;-41
2022/04/29 06:24:40;;;;;;;10.73;7.30;;;8.10;99.90;;;;;;4973309;28;20184;-40
2022/04/29 06:27:07;;;;;;;7.60;6.70;;;8.20;99.90;;;;;;4973494;28;20298;-41
2022/04/29 06:29:33;;;;;;;10.20;7.60;;;8.30;99.90;;;;;;4976806;28;20271;-42
2022/04/29 06:31:59;;;;;;;9.93;7.67;;;8.40;99.90;;;;;;4960599;28;20177;-41
2022/04/29 06:34:51;;;;;;;8.03;7.23;;;8.40;99.90;;;;;;4957690;28;20315;-40
2022/04/29 06:37:20;;;;;;;8.47;7.57;;;8.50;99.90;;;;;;4992680;28;20282;-41
2022/04/29 06:39:47;;;;;;;8.57;7.67;;;8.60;99.90;;;;;;4960662;28;20187;-42
2022/04/29 06:42:45;;;;;;;7.90;7.10;;;8.60;99.90;;;;;;4976268;28;20287;-41
2022/04/29 06:45:29;;;;;;;8.43;7.63;;;8.70;99.90;;;;;;4978944;28;20245;-41
2022/04/29 06:48:01;;;;;;;8.90;8.00;;;8.80;99.90;;;;;;4977317;28;20226;-41
2022/04/29 06:50:47;;;;;;;9.73;7.60;;;8.80;99.90;;;;;;4977589;28;20188;-41
2022/04/29 06:53:44;;;;;;;8.77;7.87;;;9.00;99.90;;;;;;4963794;28;20198;-41
2022/04/29 06:56:10;;;;;;;9.17;7.50;;;9.20;99.90;;;;;;4976246;28;20192;-41
2022/04/29 06:58:36;;;;;;;9.37;8.37;;;9.30;99.90;;;;;;4976178;28;20574;-42
2022/04/29 07:01:03;;;;;;;8.60;7.07;;;9.40;99.90;;;;;;4975983;28;20188;-41
2022/04/29 07:03:28;;;;;;;8.13;7.03;;;9.50;99.90;;;;;;4976026;28;20191;-41
2022/04/29 07:05:56;;;;;;;9.73;7.87;;;9.60;99.90;;;;;;4975984;28;20191;-40
2022/04/29 07:08:23;;;;;;;8.57;7.70;;;9.50;99.90;;;;;;4991650;28;20211;-40
2022/04/29 07:11:07;;;;;;;12.67;8.67;;;9.70;99.90;;;;;;4978458;28;20187;-37
2022/04/29 07:13:33;;;;;;;9.90;7.77;;;9.80;99.90;;;;;;4975813;28;20192;-40
2022/04/29 07:15:59;;;;;;;9.63;8.00;;;10.00;99.90;;;;;;4975458;28;20192;-41
2022/04/29 07:18:50;;;;;;;8.67;7.87;;;10.00;99.90;;;;;;4992547;28;20204;-41
2022/04/29 07:21:16;;;;;;;8.33;7.40;;;9.90;99.90;;;;;;4993186;28;20196;-41
2022/04/29 07:23:42;;;;;;;9.63;7.77;;;10.00;99.90;;;;;;4978004;28;20176;-41
2022/04/29 07:26:10;;;;;;;8.97;7.57;;;10.20;99.90;;;;;;4960625;28;20266;-42
2022/04/29 07:28:36;;;;;;;8.73;7.60;;;10.20;99.90;;;;;;4975292;28;20243;-42
2022/04/29 07:31:03;;;;;;;7.77;7.00;;;10.40;99.90;;;;;;4958929;28;20194;-37
2022/04/29 07:42:59;;;;;;;8.50;7.60;;;11.40;99.90;;;;;;4992523;28;20199;-41
2022/04/29 07:45:25;;;;;;;8.67;7.87;;;11.70;99.90;;;;;;4975347;28;20656;-40
2022/04/29 07:48:23;;;;;;;9.53;7.83;;;11.90;99.90;;;;;;4979724;28;20805;-41
2022/04/29 07:50:50;;;;;;;8.37;7.53;;;12.10;99.90;;;;;;4974948;28;20180;-42
2022/04/29 07:53:17;;;;;;;8.97;7.77;;;12.20;99.90;;;;;;4975139;28;20171;-40
2022/04/29 07:56:24;;;;;;;8.73;7.83;;;12.20;99.90;;;;;;4992584;28;20711;-41
2022/04/29 07:58:52;;;;;;;10.80;7.80;;;12.20;99.90;;;;;;4991322;28;20204;-41
2022/04/29 08:01:18;;;;;;;11.43;8.23;;;12.30;99.90;;;;;;4974913;28;20226;-40
2022/04/29 08:03:45;;;;;;;8.97;8.07;;;12.40;99.90;;;;;;4959079;28;20187;-41
2022/04/29 08:06:19;;;;;;;7.87;7.17;;;12.50;99.90;;;;;;4991838;28;20252;-38
2022/04/29 08:08:45;;;;;;;9.93;7.90;;;12.60;99.90;;;;;;4974323;28;20228;-41
2022/04/29 08:11:12;;;;;;;8.47;7.57;;;12.80;99.90;;;;;;4974756;28;20184;-42
2022/04/29 08:13:58;;;;;;;8.20;7.37;;;13.00;99.90;;;;;;4977461;28;20217;-41
2022/04/29 08:16:46;;;;;;;9.00;7.87;;;13.40;99.90;;;;;;4977690;28;20197;-42
2022/04/29 08:19:27;;;;;;;8.33;7.40;;;13.80;99.90;;;;;;4974447;28;20186;-41
2022/04/29 08:22:17;;;;;;;8.70;7.63;;;14.00;99.90;;;;;;4970060;28;20187;-41
2022/04/29 08:24:43;;;;;;;10.27;8.43;;;14.20;99.90;;;;;;4974510;28;20199;-42
2022/04/29 08:27:10;;;;;;;9.40;7.37;;;14.20;99.90;;;;;;5014904;23;20218;-39
2022/04/29 08:29:39;;;;;;;8.80;7.80;;;14.40;99.90;;;;;;4992250;28;20183;-36
2022/04/29 08:32:06;;;;;;;8.13;7.33;;;14.20;99.90;;;;;;4977623;28;20186;-38
2022/04/29 08:34:35;;;;;;;8.10;7.30;;;14.40;99.90;;;;;;5010282;28;20249;-38
2022/04/29 08:37:03;;;;;;;9.03;7.53;;;14.60;99.90;;;;;;4993109;28;20206;-35
2022/04/29 08:39:30;;;;;;;9.63;8.73;;;14.60;99.90;;;;;;4977514;28;20194;-35
2022/04/29 08:42:02;;;;;;;7.73;6.93;;;14.70;99.90;;;;;;4993118;28;20179;-39
2022/04/29 08:44:31;;;;;;;10.50;7.80;;;14.90;99.90;;;;;;4977613;28;20234;-35
2022/04/29 08:47:27;;;;;;;10.63;7.60;;;15.00;99.90;;;;;;4993498;28;20241;-36
2022/04/29 08:50:19;;;;;;;8.67;6.73;;;15.00;99.90;;;;;;5010255;28;20214;-35
2022/04/29 08:52:46;;;;;;;8.20;7.40;;;15.10;99.90;;;;;;4977529;28;20179;-35
2022/04/29 09:00:44;;;;;;;7.57;6.57;;;15.20;99.90;;;;;;4992674;28;20202;-36
2022/04/29 09:03:20;;;;;;;10.20;7.60;;;15.30;99.90;;;;;;5010077;28;20175;-37
2022/04/29 09:05:47;;;;;;;9.07;7.23;;;15.60;99.90;;;;;;4993259;28;20179;-36
2022/04/29 09:08:19;;;;;;;8.20;6.53;;;15.90;99.90;;;;;;5011113;28;20221;-40
2022/04/29 09:10:52;;;;;;;7.20;6.50;;;16.30;99.90;;;;;;4973913;28;20298;-36
2022/04/29 09:13:29;;;;;;;7.63;6.40;;;16.60;99.90;;;;;;4989132;28;20188;-37
2022/04/29 09:16:00;;;;;;;7.17;5.90;;;16.90;99.90;;;;;;4985382;28;20175;-38
2022/04/29 09:18:46;;;;;;;7.00;5.72;;;17.30;99.90;;;;;;4982910;28;20314;-39
2022/04/29 09:21:14;;;;;;;8.85;5.75;;;17.50;99.90;;;;;;5000834;28;20183;-39
2022/04/29 09:23:54;;;;;;;7.32;6.07;;;17.80;99.90;;;;;;4973584;28;20187;-38
2022/04/29 09:26:39;;;;;;;6.40;5.80;;;18.00;99.90;;;;;;4998659;28;20219;-37
2022/04/29 09:29:28;;;;;;;5.18;4.38;;;18.30;99.90;;;;;;5003969;28;20279;-37
2022/04/29 09:32:49;;;;;;;5.22;4.72;;;18.60;99.90;;;;;;5010235;28;20221;-38
2022/04/29 09:35:38;;;;;;;7.28;4.53;;;18.70;99.90;;;;;;4986772;28;20235;-36
2022/04/29 09:40:51;;;;;;;9.90;5.53;;;19.00;99.90;;;;;;5000729;28;20199;-39
2022/04/29 09:43:42;;;;;;;8.57;4.95;;;19.00;99.90;;;;;;4973390;28;20184;-38
2022/04/29 09:46:10;;;;;;;11.00;5.68;;;19.20;99.20;;;;;;4967850;28;20182;-38
2022/04/29 09:49:11;;;;;;;5.82;4.65;;;19.40;99.80;;;;;;4959887;28;20219;-37
2022/04/29 09:51:53;;;;;;;4.85;4.25;;;19.30;98.10;;;;;;5005697;28;20245;-37
2022/04/29 09:54:30;;;;;;;4.22;3.83;;;19.30;97.20;;;;;;4977743;28;20180;-37
2022/04/29 09:57:11;;;;;;;5.28;4.07;;;19.40;96.80;;;;;;4977349;28;20245;-41
2022/04/29 09:59:40;;;;;;;8.88;4.25;;;19.40;96.80;;;;;;4995056;28;20197;-41
2022/04/29 10:02:08;;;;;;;5.88;3.50;;;19.20;95.50;;;;;;4977618;28;20226;-42
2022/04/29 10:04:39;;;;;;;4.22;3.83;;;19.10;96.00;;;;;;4977925;28;20179;-40
2022/04/29 10:07:07;;;;;;;7.03;4.20;;;19.20;97.00;;;;;;4992549;28;20274;-42
2022/04/29 10:09:38;;;;;;;4.65;3.60;;;19.10;96.00;;;;;;4992671;28;20187;-40
2022/04/29 10:12:13;;;;;;;3.97;3.58;;;19.20;96.30;;;;;;5003195;28;20179;-42
2022/04/29 10:14:46;;;;;;;4.80;3.50;;;19.30;95.60;;;;;;4988486;28;20228;-39
2022/04/29 10:23:15;;;;;;;4.22;3.25;;;19.30;94.90;;;;;;4986301;28;20176;-40
2022/04/29 10:25:47;;;;;;;4.30;3.67;;;19.30;95.70;;;;;;5000318;28;20195;-38
2022/04/29 10:28:19;;;;;;;3.53;2.88;;;19.40;95.10;;;;;;4977308;28;20210;-40
2022/04/29 10:30:45;;;;;;;5.13;3.28;;;19.40;94.60;;;;;;5006282;28;20215;-38
2022/04/29 10:33:25;;;;;;;4.43;3.28;;;19.40;93.90;;;;;;4978785;28;20702;-41
2022/04/29 10:35:53;;;;;;;3.65;3.10;;;19.50;92.30;;;;;;4992155;28;20176;-39
2022/04/29 10:38:36;;;;;;;4.80;4.07;;;19.50;93.40;;;;;;4992924;28;20691;-44
2022/04/29 10:41:16;;;;;;;4.32;3.53;;;19.50;93.40;;;;;;4976012;28;20192;-41
2022/04/29 10:43:51;;;;;;;4.50;3.70;;;19.50;93.50;;;;;;4976421;28;20230;-39
2022/04/29 10:46:20;;;;;;;4.68;3.25;;;19.60;93.60;;;;;;4992221;28;20187;-39
2022/04/29 10:49:28;;;;;;;3.85;3.45;;;19.60;92.90;;;;;;4993201;28;20211;-39
2022/04/29 10:52:04;;;;;;;3.67;3.22;;;19.60;93.10;;;;;;4992577;28;20176;-39
2022/04/29 10:54:58;;;;;;;3.50;3.20;;;19.70;92.20;;;;;;4991606;28;20188;-42
2022/04/29 10:57:44;;;;;;;3.53;3.22;;;19.70;90.70;;;;;;4992370;28;20226;-45
2022/04/29 11:00:22;;;;;;;3.50;2.75;;;19.70;91.30;;;;;;4978680;28;20184;-40
2022/04/29 11:02:51;;;;;;;4.15;3.03;;;19.80;91.60;;;;;;4991698;28;20267;-39
2022/04/29 11:05:39;;;;;;;4.43;3.35;;;20.00;91.30;;;;;;4975749;28;20290;-43
2022/04/29 11:08:11;;;;;;;5.53;2.97;;;19.70;92.20;;;;;;4991969;28;20223;-40
2022/04/29 11:11:04;;;;;;;4.45;3.40;;;19.90;92.30;;;;;;4975641;28;20180;-41
2022/04/29 11:13:58;;;;;;;5.45;3.53;;;20.10;91.70;;;;;;4992643;28;20194;-41
2022/04/29 11:17:07;;;;;;;5.55;3.05;;;20.40;91.70;;;;;;4978668;28;20190;-41
2022/04/29 11:19:45;;;;;;;5.63;3.70;;;20.70;91.10;;;;;;4991746;28;20180;-44
2022/04/29 11:25:03;;;;;;;4.95;3.20;;;20.80;90.90;;;;;;4991737;28;20180;-39
2022/04/29 11:27:43;;;;;;;3.78;3.42;;;21.00;90.30;;;;;;4977712;28;20285;-42
2022/04/29 11:30:42;;;;;;;4.40;3.60;;;20.90;90.00;;;;;;4969830;28;20192;-42
2022/04/29 11:33:14;;;;;;;3.92;3.55;;;21.20;87.70;;;;;;4978298;28;20193;-43
2022/04/29 11:35:42;;;;;;;3.47;3.17;;;20.70;84.10;;;;;;4991593;28;20176;-40
2022/04/29 11:38:09;;;;;;;4.45;3.47;;;20.50;87.10;;;;;;4991366;28;20679;-41
2022/04/29 11:40:39;;;;;;;5.93;3.60;;;20.70;88.10;;;;;;4977772;28;20183;-42
2022/04/29 11:43:10;;;;;;;4.22;3.83;;;20.40;89.50;;;;;;4985356;28;20180;-45
2022/04/29 11:45:38;;;;;;;4.03;3.17;;;20.50;90.10;;;;;;4984593;28;20176;-40
2022/04/29 11:48:07;;;;;;;4.00;3.20;;;20.60;90.30;;;;;;4967520;28;20204;-42
2022/04/29 11:50:34;;;;;;;3.97;3.42;;;20.30;90.80;;;;;;5002401;28;20195;-41
2022/04/29 11:53:12;;;;;;;3.75;3.38;;;20.40;89.10;;;;;;4969284;28;20179;-43
2022/04/29 11:55:38;;;;;;;5.05;3.25;;;20.40;88.30;;;;;;4985063;28;20182;-42
2022/04/29 11:58:05;;;;;;;5.38;3.17;;;20.40;88.70;;;;;;4968979;28;20202;-40
2022/04/29 12:00:34;;;;;;;4.30;3.70;;;20.60;89.20;;;;;;4984982;28;20179;-40
2022/04/29 12:03:04;;;;;;;4.53;3.67;;;20.60;86.80;;;;;;5002707;28;20175;-39
2022/04/29 12:05:31;;;;;;;5.97;3.60;;;20.70;87.90;;;;;;4973739;28;20183;-41
2022/04/29 12:08:02;;;;;;;3.50;3.20;;;20.70;87.20;;;;;;4971891;28;20199;-40
2022/04/29 12:10:31;;;;;;;5.30;3.60;;;20.90;87.30;;;;;;4969675;28;20218;-41
2022/04/29 12:13:03;;;;;;;3.25;3.00;;;20.70;86.40;;;;;;5001632;28;20262;-40
2022/04/29 12:15:32;;;;;;;5.88;3.83;;;20.90;87.60;;;;;;4966534;28;20172;-41
2022/04/29 12:18:01;;;;;;;3.95;3.30;;;20.60;86.00;;;;;;4972329;28;20203;-45
2022/04/29 12:20:28;;;;;;;3.70;3.40;;;20.50;89.80;;;;;;4982560;28;20184;-39
2022/04/29 12:22:54;;;;;;;4.93;3.90;;;20.80;90.90;;;;;;4991881;28;20206;-42
2022/04/29 12:25:33;;;;;;;6.72;4.30;;;21.30;87.20;;;;;;4993487;28;20182;-39
2022/04/29 12:28:15;;;;;;;3.80;3.50;;;21.60;84.80;;;;;;4966508;28;20207;-42
2022/04/29 12:37:08;;;;;;;4.40;3.90;;;22.00;87.60;;;;;;4993596;28;20176;-42
2022/04/29 12:40:09;;;;;;;4.00;3.53;;;21.90;83.00;;;;;;4972982;28;20183;-42
2022/04/29 12:42:37;;;;;;;6.95;5.25;;;21.30;85.60;;;;;;4975204;28;20176;-45
2022/04/29 12:45:15;;;;;;;3.50;3.20;;;20.90;85.20;;;;;;4977005;28;20190;-39
2022/04/29 12:48:04;;;;;;;4.70;3.35;;;20.90;88.20;;;;;;4994431;28;20243;-40
2022/04/29 12:50:44;;;;;;;4.30;3.63;;;21.20;90.10;;;;;;4976627;28;20222;-42
2022/04/29 12:53:19;;;;;;;4.25;3.85;;;21.40;89.20;;;;;;4992240;28;20164;-40
2022/04/29 12:55:53;;;;;;;6.07;4.35;;;21.60;90.20;;;;;;4990314;28;20207;-42
2022/04/29 12:58:34;;;;;;;5.18;4.78;;;21.80;89.00;;;;;;4989032;28;20688;-39
2022/04/29 13:01:03;;;;;;;5.25;4.63;;;22.00;85.70;;;;;;4976575;28;20195;-42
2022/04/29 13:03:36;;;;;;;5.50;4.50;;;21.90;87.30;;;;;;4977602;28;20179;-42
2022/04/29 13:06:11;;;;;;;5.05;4.03;;;22.10;85.70;;;;;;5011135;28;20210;-40
2022/04/29 13:08:40;;;;;;;4.85;3.72;;;22.10;85.00;;;;;;4993061;28;20207;-39
2022/04/29 13:11:06;;;;;;;4.95;4.40;;;22.10;87.30;;;;;;5009316;28;20184;-40
2022/04/29 13:13:33;;;;;;;5.10;3.30;;;22.30;84.20;;;;;;4993323;28;20238;-41
2022/04/29 13:16:02;;;;;;;5.35;4.03;;;22.50;87.50;;;;;;4993290;28;20810;-43
2022/04/29 13:18:33;;;;;;;7.13;4.20;;;22.70;87.30;;;;;;4993862;28;20281;-43
2022/04/29 13:21:00;;;;;;;4.03;3.63;;;22.90;82.20;;;;;;4976793;28;20215;-41
2022/04/29 13:23:28;;;;;;;4.55;4.15;;;22.70;82.10;;;;;;4993969;28;20214;-43
2022/04/29 13:25:58;;;;;;;3.80;3.25;;;22.60;83.70;;;;;;4981989;28;20183;-41
2022/04/29 13:28:25;;;;;;;5.82;4.13;;;22.70;86.10;;;;;;4997104;28;20219;-41
2022/04/29 13:30:51;;;;;;;4.63;3.83;;;22.80;83.30;;;;;;4996856;28;20179;-39
2022/04/29 13:33:16;;;;;;;4.90;4.40;;;23.00;84.80;;;;;;5013235;28;20185;-43
2022/04/29 13:35:42;;;;;;;4.70;3.97;;;23.10;80.40;;;;;;5013099;28;20179;-41
2022/04/29 13:38:11;;;;;;;7.18;4.03;;;23.30;84.50;;;;;;4996924;28;20199;-42
2022/04/29 13:40:37;;;;;;;4.50;3.95;;;23.70;85.30;;;;;;4996843;28;20254;-44
2022/04/29 13:43:06;;;;;;;4.50;4.10;;;23.90;82.70;;;;;;4980319;28;20370;-44
2022/04/29 13:45:35;;;;;;;4.35;3.95;;;23.90;81.50;;;;;;4979570;28;20291;-39
2022/04/29 13:48:03;;;;;;;5.00;4.50;;;23.80;81.20;;;;;;5004686;28;20202;-40
2022/04/29 13:50:30;;;;;;;4.10;3.70;;;23.40;81.60;;;;;;4980193;28;20171;-40
2022/04/29 13:53:08;;;;;;;5.53;4.55;;;23.20;82.00;;;;;;4996670;28;20259;-40
2022/04/29 13:55:39;;;;;;;4.25;3.88;;;23.00;81.00;;;;;;5012953;28;20183;-41
2022/04/29 13:58:06;;;;;;;4.13;3.72;;;22.70;82.10;;;;;;5014354;28;20242;-41